Time;durP1;ratioP1;P1;durP2;ratioP2;P2;SDS_P1;SDS_P2;PMS_P1;PMS_P2;Temp;Humidity;BMP_temperature;BMP_pressure;BME280_temperature;BME280_humidity;BME280_pressure;Samples;Min_cycle;Max_cycle;Signal;HPM_P1;HPM_P2
2023/10/29 00:00:43;;;;;;;;;;;10.40;99.90;;;;;;5058648;28;19927;-83
2023/10/29 00:03:10;;;;;;;;;;;10.40;99.90;;;;;;5056443;28;19989;-86
2023/10/29 00:05:36;;;;;;;;;;;10.40;99.90;;;;;;5058079;28;19923;-88
2023/10/29 00:08:02;;;;;;;;;;;10.40;99.90;;;;;;5074238;28;20158;-89
2023/10/29 00:10:27;;;;;;;;;;;10.50;99.90;;;;;;5060826;28;19965;-83
2023/10/29 00:12:53;;;;;;;;;;;10.50;99.90;;;;;;5059484;28;19920;-86
2023/10/29 00:15:19;;;;;;;;;;;10.50;99.90;;;;;;5069181;28;19935;-86
2023/10/29 00:17:44;;;;;;;;;;;10.50;99.90;;;;;;5050680;28;19927;-86
2023/10/29 00:20:13;;;;;;;;;;;10.60;99.90;;;;;;5079794;28;19923;-90
2023/10/29 00:22:38;;;;;;;;;;;10.50;99.90;;;;;;5057408;28;19920;-86
2023/10/29 00:25:04;;;;;;;;;;;10.50;99.90;;;;;;5058455;28;20085;-85
2023/10/29 00:27:29;;;;;;;;;;;10.60;99.90;;;;;;5040585;28;19931;-87
2023/10/29 00:29:55;;;;;;;;;;;10.60;99.90;;;;;;5039235;28;19967;-89
2023/10/29 00:32:21;;;;;;;;;;;10.60;99.90;;;;;;5037355;28;20363;-85
2023/10/29 00:34:47;;;;;;;;;;;10.60;99.90;;;;;;5056503;28;19977;-91
2023/10/29 00:37:12;;;;;;;;;;;10.60;99.90;;;;;;5058423;28;19926;-88
2023/10/29 00:39:38;;;;;;;;;;;10.60;99.90;;;;;;5111523;28;19924;-88
2023/10/29 00:42:04;;;;;;;;;;;10.60;99.90;;;;;;5066395;28;19928;-86
2023/10/29 00:44:30;;;;;;;;;;;10.60;99.90;;;;;;5089245;28;19924;-89
2023/10/29 00:46:55;;;;;;;;;;;10.60;99.90;;;;;;5056607;28;19931;-85
2023/10/29 00:49:21;;;;;;;;;;;10.60;99.90;;;;;;5057325;28;19970;-91
2023/10/29 00:51:48;;;;;;;;;;;10.60;99.90;;;;;;5073499;28;19923;-91
2023/10/29 00:54:13;;;;;;;;;;;10.70;99.90;;;;;;5056569;28;19928;-87
2023/10/29 00:56:39;;;;;;;;;;;10.70;99.90;;;;;;5073912;28;20137;-84
2023/10/29 00:59:06;;;;;;;;;;;10.60;99.90;;;;;;5044895;28;20014;-85
2023/10/29 01:01:34;;;;;;;;;;;10.70;99.90;;;;;;5059171;28;19924;-86
2023/10/29 01:04:00;;;;;;;;;;;10.60;99.90;;;;;;5042429;28;19928;-87
2023/10/29 01:06:26;;;;;;;;;;;10.70;99.90;;;;;;5038193;28;19928;-85
2023/10/29 01:08:52;;;;;;;;;;;10.70;99.90;;;;;;5078794;28;20462;-82
2023/10/29 01:11:18;;;;;;;;;;;10.70;99.90;;;;;;5063327;28;20283;-84
2023/10/29 01:13:43;;;;;;;;;;;10.70;99.90;;;;;;5078448;28;19920;-85
2023/10/29 01:16:09;;;;;;;;;;;10.70;99.90;;;;;;5064619;28;20417;-88
2023/10/29 01:18:34;;;;;;;;;;;10.70;99.90;;;;;;5060429;28;19962;-84
2023/10/29 01:21:00;;;;;;;;;;;10.70;99.90;;;;;;5060257;28;20003;-88
2023/10/29 01:23:28;;;;;;;;;;;10.70;99.90;;;;;;5053941;28;19970;-87
2023/10/29 01:25:55;;;;;;;;;;;10.80;99.90;;;;;;5061956;28;19920;-87
2023/10/29 01:28:21;;;;;;;;;;;10.80;99.90;;;;;;5057003;28;19970;-84
2023/10/29 01:30:46;;;;;;;;;;;10.80;99.90;;;;;;5060762;28;19928;-86
2023/10/29 01:33:12;;;;;;;;;;;10.80;99.90;;;;;;5059195;28;19927;-90
2023/10/29 01:35:38;;;;;;;;;;;10.90;99.90;;;;;;5044100;28;19920;-87
2023/10/29 01:38:03;;;;;;;;;;;10.90;99.90;;;;;;5082731;28;19919;-86
2023/10/29 01:40:29;;;;;;;;;;;10.90;99.90;;;;;;5046625;28;19924;-89
2023/10/29 01:42:54;;;;;;;;;;;11.00;99.90;;;;;;5049244;28;19931;-87
2023/10/29 01:45:20;;;;;;;;;;;10.90;99.90;;;;;;5051880;28;19920;-89
2023/10/29 01:47:46;;;;;;;;;;;11.00;99.90;;;;;;5066516;28;20318;-86
2023/10/29 01:50:11;;;;;;;;;;;11.00;99.90;;;;;;5060627;28;20011;-89
2023/10/29 01:52:40;;;;;;;;;;;11.00;99.90;;;;;;5061083;28;20395;-92
2023/10/29 01:55:06;;;;;;;;;;;11.00;99.90;;;;;;5060602;28;20371;-88
2023/10/29 01:57:38;;;;;;;;;;;11.00;99.90;;;;;;5062755;28;19919;-87
2023/10/29 02:00:08;;;;;;;;;;;11.10;99.90;;;;;;5044797;28;20396;-90
2023/10/29 02:02:34;;;;;;;;;;;11.10;99.90;;;;;;5059337;28;19969;-86
2023/10/29 02:05:01;;;;;;;;;;;11.20;99.90;;;;;;5054520;28;20355;-89
2023/10/29 02:07:26;;;;;;;;;;;11.20;99.90;;;;;;5079481;28;19939;-85
2023/10/29 02:09:52;;;;;;;;;;;11.20;99.90;;;;;;5041159;28;19920;-88
2023/10/29 02:12:18;;;;;;;;;;;11.20;99.90;;;;;;5085889;28;19920;-89
2023/10/29 02:14:43;;;;;;;;;;;11.20;99.90;;;;;;5042535;28;19924;-89
2023/10/29 02:17:09;;;;;;;;;;;11.30;99.90;;;;;;5043303;28;20489;-91
2023/10/29 02:19:35;;;;;;;;;;;11.30;99.90;;;;;;5041818;28;19934;-92
2023/10/29 02:22:01;;;;;;;;;;;11.30;99.90;;;;;;5057435;28;19920;-89
2023/10/29 02:24:26;;;;;;;;;;;11.30;99.90;;;;;;5061014;28;19920;-81
2023/10/29 02:26:52;;;;;;;;;;;10.80;99.90;;;;;;5069924;28;20379;-83
2023/10/29 02:29:17;;;;;;;;;;;11.30;99.90;;;;;;5075742;28;19927;-89
2023/10/29 02:31:43;;;;;;;;;;;11.30;99.90;;;;;;5076320;28;19926;-88
2023/10/29 02:34:09;;;;;;;;;;;11.40;99.90;;;;;;5052759;28;19928;-92
2023/10/29 02:36:34;;;;;;;;;;;11.40;99.90;;;;;;5060561;28;19969;-88
2023/10/29 02:39:00;;;;;;;;;;;11.50;99.90;;;;;;5076581;28;20463;-87
2023/10/29 02:41:26;;;;;;;;;;;11.50;99.90;;;;;;5060598;28;19924;-85
2023/10/29 02:43:52;;;;;;;;;;;11.40;99.90;;;;;;5043061;28;19963;-85
2023/10/29 02:46:18;;;;;;;;;;;11.50;99.90;;;;;;5033975;28;19920;-85
2023/10/29 02:48:43;;;;;;;;;;;11.50;99.90;;;;;;5059643;28;19920;-89
2023/10/29 02:51:12;;;;;;;;;;;11.60;99.90;;;;;;5046364;28;19927;-87
2023/10/29 02:53:38;;;;;;;;;;;11.50;99.90;;;;;;5036926;28;19925;-88
2023/10/29 02:56:03;;;;;;;;;;;11.60;99.90;;;;;;5076685;28;19920;-90
2023/10/29 02:58:29;;;;;;;;;;;11.60;99.90;;;;;;5058504;28;19931;-90
2023/10/29 03:01:05;;;;;;;;;;;11.60;99.90;;;;;;5059970;28;19928;-91
2023/10/29 03:03:31;;;;;;;;;;;11.60;99.90;;;;;;5085011;28;19920;-88
2023/10/29 03:05:57;;;;;;;;;;;11.60;99.90;;;;;;5061387;28;20357;-86
2023/10/29 03:08:23;;;;;;;;;;;11.60;99.90;;;;;;5076007;28;19977;-91
2023/10/29 03:10:49;;;;;;;;;;;11.60;99.90;;;;;;5058889;28;20009;-86
2023/10/29 03:13:15;;;;;;;;;;;11.60;99.90;;;;;;5051361;28;19924;-90
2023/10/29 03:15:41;;;;;;;;;;;11.60;99.90;;;;;;5060970;28;19977;-87
2023/10/29 03:18:06;;;;;;;;;;;11.60;99.90;;;;;;5041313;28;19954;-85
2023/10/29 03:20:32;;;;;;;;;;;11.60;99.90;;;;;;5063217;28;19928;-84
2023/10/29 03:22:57;;;;;;;;;;;11.20;99.90;;;;;;5058690;28;19967;-85
2023/10/29 03:25:23;;;;;;;;;;;11.60;99.90;;;;;;5043455;28;19930;-84
2023/10/29 03:27:48;;;;;;;;;;;11.60;99.90;;;;;;5051640;28;19928;-86
2023/10/29 03:30:14;;;;;;;;;;;11.60;99.90;;;;;;5086365;28;20370;-85
2023/10/29 03:32:40;;;;;;;;;;;11.70;99.90;;;;;;5042744;28;19924;-88
2023/10/29 03:35:06;;;;;;;;;;;11.70;99.90;;;;;;5062824;28;19946;-90
2023/10/29 03:37:31;;;;;;;;;;;11.60;99.90;;;;;;5047665;28;20002;-87
2023/10/29 03:39:58;;;;;;;;;;;11.40;99.90;;;;;;5044658;28;19966;-90
2023/10/29 03:42:23;;;;;;;;;;;11.60;99.90;;;;;;5074733;28;20521;-91
2023/10/29 03:44:49;;;;;;;;;;;11.60;99.90;;;;;;5085795;28;19923;-85
2023/10/29 03:47:15;;;;;;;;;;;11.60;99.90;;;;;;5068738;28;19973;-90
2023/10/29 03:49:43;;;;;;;;;;;11.60;99.90;;;;;;5059326;28;20362;-92
2023/10/29 03:52:09;;;;;;;;;;;11.50;99.90;;;;;;5040915;28;19934;-90
2023/10/29 03:54:34;;;;;;;;;;;11.40;99.90;;;;;;5042379;28;19920;-86
2023/10/29 03:57:00;;;;;;;;;;;11.50;99.90;;;;;;5040998;28;19920;-86
2023/10/29 03:59:26;;;;;;;;;;;11.50;99.90;;;;;;5046002;28;19924;-86
2023/10/29 04:01:51;;;;;;;;;;;11.50;99.90;;;;;;5057655;28;19999;-89
2023/10/29 04:04:17;;;;;;;;;;;11.50;99.90;;;;;;5065035;28;20367;-86
2023/10/29 04:06:43;;;;;;;;;;;11.50;99.90;;;;;;5054747;28;19924;-86
2023/10/29 04:09:09;;;;;;;;;;;11.60;99.90;;;;;;5040915;28;19920;-88
2023/10/29 04:11:35;;;;;;;;;;;11.60;99.90;;;;;;5056064;28;19921;-87
2023/10/29 04:14:01;;;;;;;;;;;11.60;99.90;;;;;;5059221;28;19935;-90
2023/10/29 04:16:27;;;;;;;;;;;11.70;99.90;;;;;;5041134;28;19924;-90
2023/10/29 04:18:53;;;;;;;;;;;11.70;99.90;;;;;;5050947;28;19920;-90
2023/10/29 04:21:18;;;;;;;;;;;11.80;99.90;;;;;;5057525;28;19924;-87
2023/10/29 04:23:44;;;;;;;;;;;11.80;99.90;;;;;;5041076;28;20375;-87
2023/10/29 04:26:10;;;;;;;;;;;11.80;99.90;;;;;;5057717;28;19920;-89
2023/10/29 04:28:35;;;;;;;;;;;11.90;99.90;;;;;;5056212;28;20385;-87
2023/10/29 04:31:01;;;;;;;;;;;11.90;99.90;;;;;;5049714;28;19920;-90
2023/10/29 04:33:27;;;;;;;;;;;11.90;99.90;;;;;;5056774;28;19924;-89
2023/10/29 04:35:53;;;;;;;;;;;11.90;99.90;;;;;;5077458;28;19927;-90
2023/10/29 04:38:18;;;;;;;;;;;12.00;99.90;;;;;;5064778;28;19928;-87
2023/10/29 04:40:44;;;;;;;;;;;12.00;99.90;;;;;;5043563;28;19947;-88
2023/10/29 04:43:10;;;;;;;;;;;12.10;99.90;;;;;;5070186;28;19920;-90
2023/10/29 04:45:35;;;;;;;;;;;12.10;99.90;;;;;;5044158;28;19924;-89
2023/10/29 04:48:01;;;;;;;;;;;12.10;99.90;;;;;;5045612;28;19997;-87
2023/10/29 04:50:30;;;;;;;;;;;12.00;99.90;;;;;;5062542;28;20011;-88
2023/10/29 04:52:56;;;;;;;;;;;11.90;99.90;;;;;;5073063;28;19946;-89
2023/10/29 04:55:21;;;;;;;;;;;11.80;99.90;;;;;;5078919;28;19920;-88
2023/10/29 04:57:47;;;;;;;;;;;11.70;99.90;;;;;;5062484;28;19927;-92
2023/10/29 05:00:13;;;;;;;;;;;11.60;99.90;;;;;;5061720;28;19920;-87
2023/10/29 05:02:39;;;;;;;;;;;11.50;99.90;;;;;;5035952;28;19935;-91
2023/10/29 05:05:06;;;;;;;;;;;11.50;99.90;;;;;;5047685;28;19920;-86
2023/10/29 05:07:32;;;;;;;;;;;11.40;99.90;;;;;;5040199;28;19970;-94
2023/10/29 05:09:58;;;;;;;;;;;11.40;99.90;;;;;;5043611;28;19920;-93
2023/10/29 05:12:24;;;;;;;;;;;11.40;99.90;;;;;;5041492;28;19927;-94
2023/10/29 05:14:53;;;;;;;;;;;12.50;99.90;;;;;;5060807;28;19919;-89
2023/10/29 05:17:19;;;;;;;;;;;11.30;99.90;;;;;;5051229;28;19931;-85
2023/10/29 05:19:44;;;;;;;;;;;11.30;99.90;;;;;;5055075;28;19921;-86
2023/10/29 05:22:10;;;;;;;;;;;11.30;99.90;;;;;;5076598;28;19926;-85
2023/10/29 05:24:36;;;;;;;;;;;10.40;99.90;;;;;;5060377;28;20011;-86
2023/10/29 05:27:02;;;;;;;;;;;11.20;99.90;;;;;;5069312;28;19930;-86
2023/10/29 05:29:28;;;;;;;;;;;11.30;99.90;;;;;;5037414;28;19932;-89
2023/10/29 05:31:54;;;;;;;;;;;11.20;99.90;;;;;;5050765;28;20012;-85
2023/10/29 05:34:19;;;;;;;;;;;11.20;99.90;;;;;;5077659;28;20545;-93
2023/10/29 05:36:45;;;;;;;;;;;11.20;99.90;;;;;;5051346;28;20290;-91
2023/10/29 05:39:11;;;;;;;;;;;11.20;99.90;;;;;;5068140;28;19968;-88
2023/10/29 05:41:37;;;;;;;;;;;11.20;99.90;;;;;;5046808;28;20130;-89
2023/10/29 05:44:02;;;;;;;;;;;11.20;99.90;;;;;;5037896;28;19920;-87
2023/10/29 05:46:28;;;;;;;;;;;11.20;99.90;;;;;;5042964;28;20280;-90
2023/10/29 05:48:53;;;;;;;;;;;11.20;99.90;;;;;;5035050;28;19920;-86
2023/10/29 05:51:19;;;;;;;;;;;11.10;99.90;;;;;;5047099;28;20528;-90
2023/10/29 05:53:47;;;;;;;;;;;11.20;99.90;;;;;;5051107;28;19924;-93
2023/10/29 05:56:12;;;;;;;;;;;11.10;99.90;;;;;;5061179;28;19988;-90
2023/10/29 05:58:38;;;;;;;;;;;11.10;99.90;;;;;;5053628;28;19920;-90
2023/10/29 06:01:04;;;;;;;;;;;11.10;99.90;;;;;;5056927;28;19942;-85
2023/10/29 06:03:30;;;;;;;;;;;11.10;99.90;;;;;;5043784;28;19931;-90
2023/10/29 06:05:55;;;;;;;;;;;11.10;99.90;;;;;;5052564;28;20014;-88
2023/10/29 06:08:21;;;;;;;;;;;11.20;99.90;;;;;;5054238;28;19924;-92
2023/10/29 06:10:47;;;;;;;;;;;11.10;99.90;;;;;;5056068;28;19927;-89
2023/10/29 06:13:13;;;;;;;;;;;11.20;99.90;;;;;;5035791;28;19920;-87
2023/10/29 06:15:39;;;;;;;;;;;11.20;99.90;;;;;;5059754;28;19924;-93
2023/10/29 06:18:06;;;;;;;;;;;11.20;99.90;;;;;;5067874;28;19920;-88
2023/10/29 06:20:32;;;;;;;;;;;11.20;99.90;;;;;;5050891;28;19967;-89
2023/10/29 06:22:58;;;;;;;;;;;11.30;99.90;;;;;;5045255;28;19920;-88
2023/10/29 06:25:24;;;;;;;;;;;11.30;99.90;;;;;;5045581;28;19920;-88
2023/10/29 06:27:50;;;;;;;;;;;11.40;99.90;;;;;;5041525;28;20375;-88
2023/10/29 06:30:16;;;;;;;;;;;11.40;99.90;;;;;;5074783;28;19941;-90
2023/10/29 06:32:42;;;;;;;;;;;11.40;99.90;;;;;;5059811;28;19973;-91
2023/10/29 06:35:08;;;;;;;;;;;11.40;99.90;;;;;;5076551;28;19969;-90
2023/10/29 06:37:34;;;;;;;;;;;11.40;99.90;;;;;;5064240;28;19973;-94
2023/10/29 06:40:00;;;;;;;;;;;11.40;99.90;;;;;;5065512;28;19930;-93
2023/10/29 06:42:25;;;;;;;;;;;11.50;99.90;;;;;;5041049;28;20294;-87
2023/10/29 06:44:51;;;;;;;;;;;11.40;99.90;;;;;;5058222;28;19943;-88
2023/10/29 06:47:16;;;;;;;;;;;11.50;99.90;;;;;;5046186;28;19971;-91
2023/10/29 06:49:42;;;;;;;;;;;11.50;99.90;;;;;;5049497;28;19965;-89
2023/10/29 06:52:08;;;;;;;;;;;11.50;99.90;;;;;;5079654;28;19924;-85
2023/10/29 06:54:34;;;;;;;;;;;11.50;99.90;;;;;;5066646;28;19924;-89
2023/10/29 06:57:00;;;;;;;;;;;11.50;99.90;;;;;;5085958;28;20008;-86
2023/10/29 06:59:26;;;;;;;;;;;11.50;99.90;;;;;;5085706;28;20065;-90
2023/10/29 07:01:52;;;;;;;;;;;11.50;99.90;;;;;;5064256;28;19955;-89
2023/10/29 07:04:17;;;;;;;;;;;11.50;99.90;;;;;;5041775;28;19927;-87
2023/10/29 07:06:46;;;;;;;;;;;11.60;99.90;;;;;;5042215;28;19920;-90
2023/10/29 07:09:15;;;;;;;;;;;11.50;99.90;;;;;;5055897;28;19920;-83
2023/10/29 07:11:41;;;;;;;;;;;11.70;99.90;;;;;;5078733;28;19920;-88
2023/10/29 07:14:06;;;;;;;;;;;11.70;99.90;;;;;;5048493;28;19920;-91
2023/10/29 07:16:32;;;;;;;;;;;11.80;99.90;;;;;;5078884;28;19981;-87
2023/10/29 07:18:58;;;;;;;;;;;11.80;99.90;;;;;;5042413;28;19974;-90
2023/10/29 07:21:23;;;;;;;;;;;11.80;99.90;;;;;;5063085;28;19963;-93
2023/10/29 07:23:49;;;;;;;;;;;11.80;99.90;;;;;;5076540;28;19924;-87
2023/10/29 07:26:15;;;;;;;;;;;11.90;99.90;;;;;;5075928;28;19931;-92
2023/10/29 07:28:41;;;;;;;;;;;11.80;99.90;;;;;;5044426;28;19931;-90
2023/10/29 07:31:06;;;;;;;;;;;11.90;99.90;;;;;;5061787;28;20011;-88
2023/10/29 07:33:32;;;;;;;;;;;12.00;99.90;;;;;;5070613;28;19920;-90
2023/10/29 07:36:01;;;;;;;;;;;12.00;99.90;;;;;;5060777;28;19924;-87
2023/10/29 07:38:27;;;;;;;;;;;12.00;99.90;;;;;;5061350;28;19920;-91
2023/10/29 07:40:52;;;;;;;;;;;12.00;99.90;;;;;;5047258;28;19942;-90
2023/10/29 07:43:18;;;;;;;;;;;12.00;99.90;;;;;;5044400;28;19920;-92
2023/10/29 07:45:44;;;;;;;;;;;12.00;99.90;;;;;;5054172;28;19947;-88
2023/10/29 07:48:10;;;;;;;;;;;12.00;99.90;;;;;;5082004;28;19971;-85
2023/10/29 07:50:35;;;;;;;;;;;11.90;99.90;;;;;;5057463;28;19981;-90
2023/10/29 07:53:01;;;;;;;;;;;12.00;99.90;;;;;;5059924;28;19924;-90
2023/10/29 07:55:26;;;;;;;;;;;12.10;99.90;;;;;;5051827;28;20286;-86
2023/10/29 07:57:52;;;;;;;;;;;12.20;99.90;;;;;;5064738;28;20374;-87
2023/10/29 08:00:18;;;;;;;;;;;12.20;99.90;;;;;;5036331;28;20031;-91
2023/10/29 08:02:44;;;;;;;;;;;12.30;99.90;;;;;;5040331;28;19920;-90
2023/10/29 08:05:14;;;;;;;;;;;;;;;;;;5036760;28;19940;-87
2023/10/29 08:07:40;;;;;;;;;;;12.50;99.90;;;;;;5057538;28;19924;-90
2023/10/29 08:10:06;;;;;;;;;;;12.50;99.90;;;;;;5059890;28;19947;-88
2023/10/29 08:12:32;;;;;;;;;;;12.60;99.90;;;;;;5063148;28;19924;-93
2023/10/29 08:14:57;;;;;;;;;;;12.60;99.90;;;;;;5036934;28;20057;-91
2023/10/29 08:17:23;;;;;;;;;;;12.60;99.90;;;;;;5043824;28;20413;-86
2023/10/29 08:19:49;;;;;;;;;;;12.60;99.90;;;;;;5054739;28;19931;-89
2023/10/29 08:22:14;;;;;;;;;;;12.60;99.90;;;;;;5071114;28;19920;-87
2023/10/29 08:24:40;;;;;;;;;;;12.60;99.90;;;;;;5062130;28;19966;-87
2023/10/29 08:27:06;;;;;;;;;;;12.60;99.90;;;;;;5040932;28;19924;-87
2023/10/29 08:29:34;;;;;;;;;;;12.70;99.90;;;;;;5064004;28;19942;-86
2023/10/29 08:32:00;;;;;;;;;;;12.70;99.90;;;;;;5043949;28;19924;-90
2023/10/29 08:34:26;;;;;;;;;;;12.80;99.90;;;;;;5081034;28;19926;-88
2023/10/29 08:36:52;;;;;;;;;;;12.80;99.90;;;;;;5050601;28;19920;-90
2023/10/29 08:39:17;;;;;;;;;;;12.90;99.90;;;;;;5048516;28;19959;-94
2023/10/29 08:41:43;;;;;;;;;;;12.90;99.90;;;;;;5062917;28;20429;-94
2023/10/29 08:44:09;;;;;;;;;;;13.00;99.90;;;;;;5078428;28;19931;-92
2023/10/29 08:46:34;;;;;;;;;;;13.10;99.90;;;;;;5056764;28;19920;-96
2023/10/29 08:49:00;;;;;;;;;;;13.10;99.90;;;;;;5076496;28;20015;-90
2023/10/29 08:51:25;;;;;;;;;;;13.20;99.90;;;;;;5046369;28;19920;-93
2023/10/29 08:53:51;;;;;;;;;;;13.30;99.90;;;;;;5069089;28;19924;-91
2023/10/29 08:56:17;;;;;;;;;;;13.30;99.90;;;;;;5048655;28;19947;-93
2023/10/29 08:58:42;;;;;;;;;;;13.30;99.90;;;;;;5075123;28;19920;-96
2023/10/29 09:01:11;;;;;;;;;;;13.20;99.90;;;;;;5065918;28;19920;-87
2023/10/29 09:03:37;;;;;;;;;;;13.20;99.90;;;;;;5063186;28;19923;-93
2023/10/29 09:06:05;;;;;;;;;;;13.10;99.90;;;;;;5063460;28;19924;-92
2023/10/29 09:08:33;;;;;;;;;;;13.10;99.90;;;;;;5045198;28;19924;-92
2023/10/29 09:10:59;;;;;;;;;;;13.20;99.90;;;;;;5072055;28;19927;-93
2023/10/29 09:13:25;;;;;;;;;;;13.20;99.90;;;;;;5063269;28;19919;-90
2023/10/29 09:15:51;;;;;;;;;;;13.30;99.90;;;;;;5046883;28;19924;-93
2023/10/29 09:18:17;;;;;;;;;;;13.30;99.90;;;;;;5043794;28;19924;-94
2023/10/29 09:20:46;;;;;;;;;;;13.30;99.90;;;;;;5079569;28;19920;-93
2023/10/29 09:23:15;;;;;;;;;;;13.30;99.90;;;;;;5063115;28;19942;-86
2023/10/29 09:25:46;;;;;;;;;;;13.20;99.90;;;;;;5057064;28;19931;-89
2023/10/29 09:28:13;;;;;;;;;;;13.10;99.90;;;;;;5081959;28;19974;-86
2023/10/29 09:30:39;;;;;;;;;;;12.10;99.90;;;;;;5046468;28;19924;-84
2023/10/29 09:33:05;;;;;;;;;;;13.10;99.90;;;;;;5052394;28;19984;-91
2023/10/29 09:35:32;;;;;;;;;;;13.10;99.90;;;;;;5046528;28;19927;-87
2023/10/29 09:37:58;;;;;;;;;;;13.20;99.90;;;;;;5055819;28;20347;-89
2023/10/29 09:40:24;;;;;;;;;;;13.30;99.90;;;;;;5078731;28;19960;-89
2023/10/29 09:42:54;;;;;;;;;;;13.40;99.90;;;;;;5050358;28;20006;-87
2023/10/29 09:45:24;;;;;;;;;;;13.50;99.90;;;;;;5092181;28;19974;-85
2023/10/29 09:47:50;;;;;;;;;;;13.60;99.90;;;;;;5053085;28;19932;-88
2023/10/29 09:50:16;;;;;;;;;;;13.50;99.90;;;;;;5050306;28;20295;-86
2023/10/29 09:52:41;;;;;;;;;;;13.50;99.90;;;;;;5052653;28;20011;-89
2023/10/29 09:55:08;;;;;;;;;;;13.40;99.90;;;;;;5051295;28;20041;-88
2023/10/29 09:57:34;;;;;;;;;;;13.40;99.90;;;;;;5062568;28;19930;-91
2023/10/29 10:00:00;;;;;;;;;;;13.40;99.90;;;;;;5065531;28;19924;-86
2023/10/29 10:02:26;;;;;;;;;;;13.50;99.90;;;;;;5055410;28;19926;-88
2023/10/29 10:04:52;;;;;;;;;;;13.50;99.90;;;;;;5039073;28;20019;-86
2023/10/29 10:07:19;;;;;;;;;;;13.60;99.90;;;;;;5057846;28;19924;-86
2023/10/29 10:09:55;;;;;;;;;;;13.60;99.90;;;;;;5058534;28;19919;-90
2023/10/29 10:12:21;;;;;;;;;;;13.60;99.90;;;;;;5045843;28;19924;-85
2023/10/29 10:14:47;;;;;;;;;;;13.60;99.90;;;;;;5058781;28;19957;-89
2023/10/29 10:17:14;;;;;;;;;;;13.60;99.90;;;;;;5077458;28;20003;-91
2023/10/29 10:19:40;;;;;;;;;;;13.70;99.90;;;;;;5044125;28;19956;-85
2023/10/29 10:22:06;;;;;;;;;;;13.70;99.90;;;;;;5046041;28;19920;-85
2023/10/29 10:24:35;;;;;;;;;;;13.70;99.90;;;;;;5047609;28;20486;-88
2023/10/29 10:27:02;;;;;;;;;;;;;;;;;;5065865;28;19924;-89
2023/10/29 10:29:34;;;;;;;;;;;13.80;99.90;;;;;;5090956;28;20362;-86
2023/10/29 10:32:02;;;;;;;;;;;13.80;99.90;;;;;;5043778;28;20327;-87
2023/10/29 10:34:29;;;;;;;;;;;13.80;99.90;;;;;;5058112;28;19973;-90
2023/10/29 10:36:58;;;;;;;;;;;13.80;99.90;;;;;;5085803;28;19924;-89
2023/10/29 10:39:27;;;;;;;;;;;13.70;99.90;;;;;;5061947;28;19924;-89
2023/10/29 10:41:52;;;;;;;;;;;13.70;99.90;;;;;;5076377;28;19920;-87
2023/10/29 10:44:22;;;;;;;;;;;13.70;99.90;;;;;;5070710;28;19943;-88
2023/10/29 10:46:49;;;;;;;;;;;13.70;99.90;;;;;;5051044;28;19957;-85
2023/10/29 10:49:15;;;;;;;;;;;13.70;99.90;;;;;;5074941;28;19920;-88
2023/10/29 10:51:40;;;;;;;;;;;13.70;99.90;;;;;;5066624;28;19920;-92
2023/10/29 10:54:06;;;;;;;;;;;13.70;99.90;;;;;;5051739;28;19924;-90
2023/10/29 10:56:35;;;;;;;;;;;13.70;99.90;;;;;;5086229;28;19965;-86
2023/10/29 10:59:11;;;;;;;;;;;13.70;99.90;;;;;;5051041;28;20003;-89
2023/10/29 11:01:38;;;;;;;;;;;13.70;99.90;;;;;;5078431;28;19920;-88
2023/10/29 11:04:05;;;;;;;;;;;13.50;99.90;;;;;;5061419;28;19967;-85
2023/10/29 11:06:31;;;;;;;;;;;13.80;99.90;;;;;;5043205;28;19920;-87
2023/10/29 11:09:00;;;;;;;;;;;13.80;99.90;;;;;;5037066;28;19924;-86
2023/10/29 11:11:31;;;;;;;;;;;13.80;99.90;;;;;;5044789;28;19970;-92
2023/10/29 11:14:10;;;;;;;;;;;13.90;99.90;;;;;;5063922;28;20378;-85
2023/10/29 11:16:55;;;;;;;;;;;13.90;99.90;;;;;;5066905;28;19920;-88
2023/10/29 11:19:33;;;;;;;;;;;13.90;99.90;;;;;;5077400;28;19969;-84
2023/10/29 11:22:18;;;;;;;;;;;13.90;99.90;;;;;;5059604;28;20002;-88
2023/10/29 11:24:45;;;;;;;;;;;13.80;99.90;;;;;;5081082;28;19928;-86
2023/10/29 11:27:30;;;;;;;;;;;13.80;99.90;;;;;;5076255;28;19924;-85
2023/10/29 11:30:12;;;;;;;;;;;13.80;99.90;;;;;;5056774;28;19920;-85
2023/10/29 11:32:38;;;;;;;;;;;13.80;99.90;;;;;;5063710;28;20335;-87
2023/10/29 11:35:22;;;;;;;;;;;13.80;99.90;;;;;;5044003;28;19923;-86
2023/10/29 11:37:52;;;;;;;;;;;13.80;99.90;;;;;;5075867;28;19923;-89
2023/10/29 11:40:23;;;;;;;;;;;13.80;99.90;;;;;;5065990;28;19920;-88
2023/10/29 11:43:09;;;;;;;;;;;13.80;99.90;;;;;;5074131;28;19935;-83
2023/10/29 11:45:41;;;;;;;;;;;13.90;99.90;;;;;;5055279;28;20018;-92
2023/10/29 11:48:31;;;;;;;;;;;14.00;99.90;;;;;;5082891;28;19939;-91
2023/10/29 11:51:15;;;;;;;;;;;13.90;99.90;;;;;;5061308;28;20370;-93
2023/10/29 11:57:23;;;;;;;;;;;14.00;99.90;;;;;;4945738;28;19962;-88
2023/10/29 11:59:59;;;;;;;;;;;13.70;99.90;;;;;;5027107;28;19960;-93
2023/10/29 12:02:31;;;;;;;;;;;12.90;99.90;;;;;;5025196;28;20458;-91
2023/10/29 12:05:01;;;;;;;;;;;13.10;99.90;;;;;;5012490;28;19924;-84
2023/10/29 12:07:28;;;;;;;;;;;13.50;99.90;;;;;;5013227;28;19930;-87
2023/10/29 12:10:00;;;;;;;;;;;13.60;99.90;;;;;;5032517;28;19931;-85
2023/10/29 12:12:26;;;;;;;;;;;13.60;99.90;;;;;;5048128;28;19920;-84
2023/10/29 12:14:52;;;;;;;;;;;13.60;99.90;;;;;;5072002;28;19945;-87
2023/10/29 12:17:17;;;;;;;;;;;13.60;99.90;;;;;;5044942;28;19986;-86
2023/10/29 12:19:44;;;;;;;;;;;13.60;99.90;;;;;;5036987;28;19999;-85
2023/10/29 12:22:18;;;;;;;;;;;13.50;99.90;;;;;;5072826;28;19921;-85
2023/10/29 12:24:45;;;;;;;;;;;13.50;99.90;;;;;;5053894;28;19970;-86
2023/10/29 12:27:11;;;;;;;;;;;13.50;99.90;;;;;;5073909;28;20320;-86
2023/10/29 12:29:37;;;;;;;;;;;13.50;99.90;;;;;;5019575;28;19920;-83
2023/10/29 12:32:03;;;;;;;;;;;13.40;99.90;;;;;;5059661;28;19927;-83
2023/10/29 12:34:44;;;;;;;;;;;13.40;99.90;;;;;;5061112;28;20019;-86
2023/10/29 12:37:18;;;;;;;;;;;13.40;99.90;;;;;;5071505;28;19927;-84
2023/10/29 12:39:45;;;;;;;;;;;13.30;99.90;;;;;;5075565;28;19920;-85
2023/10/29 12:42:11;;;;;;;;;;;13.40;99.90;;;;;;5040692;28;19947;-86
2023/10/29 12:44:37;;;;;;;;;;;13.40;99.90;;;;;;5021227;28;19921;-84
2023/10/29 12:47:03;;;;;;;;;;;13.40;99.90;;;;;;5041780;28;20398;-86
2023/10/29 12:49:33;;;;;;;;;;;13.40;99.90;;;;;;5055821;28;20014;-87
2023/10/29 12:52:01;;;;;;;;;;;13.40;99.90;;;;;;5061320;28;20015;-86
2023/10/29 12:54:27;;;;;;;;;;;13.40;99.90;;;;;;5054932;28;19946;-88
2023/10/29 12:56:57;;;;;;;;;;;13.40;99.90;;;;;;5073083;28;20015;-84
2023/10/29 12:59:27;;;;;;;;;;;13.30;99.90;;;;;;5040785;28;19923;-86
2023/10/29 13:01:54;;;;;;;;;;;13.30;99.90;;;;;;5068693;28;19920;-90
2023/10/29 13:04:20;;;;;;;;;;;13.30;99.90;;;;;;5062829;28;19924;-86
2023/10/29 13:06:46;;;;;;;;;;;13.40;99.90;;;;;;5042675;28;19928;-86
2023/10/29 13:09:21;;;;;;;;;;;13.30;99.90;;;;;;5044960;28;20011;-84
2023/10/29 13:11:48;;;;;;;;;;;13.20;99.90;;;;;;5045739;28;19919;-85
2023/10/29 13:14:14;;;;;;;;;;;13.20;99.90;;;;;;5052555;28;19978;-85
2023/10/29 13:16:40;;;;;;;;;;;13.10;99.90;;;;;;5054955;28;20330;-86
2023/10/29 13:19:06;;;;;;;;;;;13.10;99.90;;;;;;5084534;28;19927;-89
2023/10/29 13:21:36;;;;;;;;;;;13.10;99.90;;;;;;5066257;28;19970;-87
2023/10/29 13:24:02;;;;;;;;;;;13.20;99.90;;;;;;5076084;28;19927;-84
2023/10/29 13:26:28;;;;;;;;;;;13.20;99.90;;;;;;5057954;28;20286;-85
2023/10/29 13:28:54;;;;;;;;;;;13.20;99.90;;;;;;5048412;28;19924;-90
2023/10/29 13:31:22;;;;;;;;;;;13.20;99.90;;;;;;5042200;28;19924;-90
2023/10/29 13:33:48;;;;;;;;;;;13.20;99.90;;;;;;5062702;28;19920;-87
2023/10/29 13:36:14;;;;;;;;;;;13.20;99.90;;;;;;5066230;28;19989;-91
2023/10/29 13:38:40;;;;;;;;;;;13.20;99.90;;;;;;5046361;28;19920;-93
2023/10/29 13:41:06;;;;;;;;;;;13.20;99.90;;;;;;5045868;28;19949;-88
2023/10/29 13:43:31;;;;;;;;;;;13.10;99.90;;;;;;5060703;28;19920;-87
2023/10/29 13:46:00;;;;;;;;;;;13.10;99.90;;;;;;5047969;28;19920;-87
2023/10/29 13:48:26;;;;;;;;;;;13.10;99.90;;;;;;5067227;28;19943;-86
2023/10/29 13:50:52;;;;;;;;;;;12.40;99.90;;;;;;5051282;28;19967;-85
2023/10/29 13:53:18;;;;;;;;;;;13.10;99.90;;;;;;5059904;28;19979;-88
2023/10/29 13:55:43;;;;;;;;;;;13.10;99.90;;;;;;5061406;28;19931;-87
2023/10/29 13:58:09;;;;;;;;;;;13.20;99.90;;;;;;5052680;28;19924;-90
2023/10/29 14:00:35;;;;;;;;;;;13.20;99.90;;;;;;5067135;28;20329;-88
2023/10/29 14:03:00;;;;;;;;;;;13.30;99.90;;;;;;5065416;28;19927;-88
2023/10/29 14:05:27;;;;;;;;;;;13.40;99.90;;;;;;5041503;28;20011;-88
2023/10/29 14:07:57;;;;;;;;;;;13.40;99.90;;;;;;5048929;28;19960;-87
2023/10/29 14:10:26;;;;;;;;;;;13.40;99.90;;;;;;5057844;28;19920;-87
2023/10/29 14:12:51;;;;;;;;;;;13.40;99.90;;;;;;5055432;28;19962;-88
2023/10/29 14:15:17;;;;;;;;;;;13.30;99.90;;;;;;5081232;28;19920;-90
2023/10/29 14:17:43;;;;;;;;;;;13.30;99.90;;;;;;5060070;28;20027;-86
2023/10/29 14:20:09;;;;;;;;;;;13.20;99.90;;;;;;5079992;28;19928;-87